createdAt,value
2022-08-05T00:01:28.103Z,101557.88
2022-08-05T00:06:33.232Z,101556.94
2022-08-05T00:11:49.497Z,101558.69
2022-08-05T00:17:01.973Z,101577.31
2022-08-05T00:22:06.067Z,101567.50
2022-08-05T00:27:16.585Z,101573.69
2022-08-05T00:32:20.373Z,101568.31
2022-08-05T00:37:35.574Z,101569.16
2022-08-05T00:42:53.495Z,101569.16
2022-08-05T00:48:05.500Z,101558.47
2022-08-05T00:53:09.892Z,101545.94
2022-08-05T00:58:33.834Z,101573.47
2022-08-05T01:03:36.873Z,101578.75
2022-08-05T01:08:44.341Z,101582.31
2022-08-05T01:13:59.895Z,101584.94
2022-08-05T01:19:14.310Z,101611.66
2022-08-05T01:24:34.602Z,101603.63
2022-08-05T01:29:44.892Z,101620.53
2022-08-05T01:34:56.763Z,101619.63
2022-08-05T01:40:01.031Z,101630.22
2022-08-05T01:45:08.077Z,101612.47
2022-08-05T01:50:16.025Z,101601.75
2022-08-05T01:55:23.973Z,101599.06
2022-08-05T02:00:31.136Z,101603.50
2022-08-05T02:05:37.933Z,101593.69
2022-08-05T02:10:52.448Z,101592.78
2022-08-05T02:16:05.041Z,101578.47
2022-08-05T02:21:15.533Z,101589.09
2022-08-05T02:26:23.308Z,101584.56
2022-08-05T02:31:34.863Z,101571.16
2022-08-05T02:36:42.776Z,101570.22
2022-08-05T02:42:00.614Z,101581.78
2022-08-05T02:47:08.657Z,101572.88
2022-08-05T02:52:29.475Z,101581.72
2022-08-05T02:58:10.734Z,101592.38
2022-08-05T03:03:01.658Z,101591.50
2022-08-05T03:08:08.513Z,101594.19
2022-08-05T03:13:16.903Z,101588.81
2022-08-05T03:18:24.750Z,101593.22
2022-08-05T03:23:34.288Z,101595.84
2022-08-05T03:28:38.460Z,101602.94
2022-08-05T03:33:51.102Z,101615.31
2022-08-05T03:38:54.707Z,101622.38
2022-08-05T03:44:08.461Z,101617.84
2022-08-05T03:49:16.058Z,101604.50
2022-08-05T03:55:34.325Z,101601.84
2022-08-05T03:59:55.012Z,101606.19
2022-08-05T04:05:01.304Z,101614.97
2022-08-05T04:10:05.022Z,101619.34
2022-08-05T04:15:09.022Z,101621.03
2022-08-05T04:20:22.141Z,101614.72
2022-08-05T04:25:56.670Z,101628.03
2022-08-05T04:30:49.850Z,101626.31
2022-08-05T04:36:11.290Z,101610.28
2022-08-05T04:41:17.501Z,101614.63
2022-08-05T04:46:28.164Z,101616.28
2022-08-05T04:51:33.099Z,101624.22
2022-08-05T04:56:37.854Z,101619.72
2022-08-05T05:02:07.817Z,101620.47
2022-08-05T05:07:09.434Z,101620.41
2022-08-05T05:12:29.237Z,101617.63
2022-08-05T05:17:55.488Z,101624.66
2022-08-05T05:23:08.415Z,101625.53
2022-08-05T05:28:23.005Z,101617.47
2022-08-05T05:33:27.873Z,101631.63
2022-08-05T05:38:32.246Z,101631.66
2022-08-05T05:43:56.663Z,101645.88
2022-08-05T05:48:58.417Z,101644.19
2022-08-05T05:54:11.519Z,101644.44
2022-08-05T05:59:14.652Z,101641.91
2022-08-05T06:04:17.708Z,101658.88
2022-08-05T06:09:25.852Z,101658.06
2022-08-05T06:14:40.273Z,101662.69
2022-08-05T06:19:43.470Z,101670.66
2022-08-05T06:25:00.828Z,101676.00
2022-08-05T06:30:20.228Z,101675.28
2022-08-05T06:36:07.469Z,101677.22
2022-08-05T06:40:49.399Z,101687.88
2022-08-05T06:46:06.866Z,101694.06
2022-08-05T06:51:23.882Z,101702.09
2022-08-05T06:56:35.203Z,101715.50
2022-08-05T07:01:40.772Z,101715.00
2022-08-05T07:06:45.497Z,101716.84
2022-08-05T07:11:55.856Z,101720.22
2022-08-05T07:17:59.794Z,101716.66
2022-08-05T07:22:28.271Z,101720.16
2022-08-05T07:27:57.086Z,101736.31
2022-08-05T07:32:57.386Z,101748.84
2022-08-05T07:38:00.658Z,101747.22
2022-08-05T07:43:14.638Z,101741.09
2022-08-05T07:49:03.026Z,101743.34
2022-08-05T07:53:50.638Z,101761.41
2022-08-05T07:58:58.977Z,101766.06
2022-08-05T08:04:03.111Z,101772.41
2022-08-05T08:09:07.322Z,101777.09
2022-08-05T08:14:11.802Z,101773.72
2022-08-05T08:20:22.899Z,101780.91
2022-08-05T08:24:51.235Z,101784.69
2022-08-05T08:30:05.503Z,101789.16
2022-08-05T08:35:20.809Z,101794.53
2022-08-05T08:40:31.483Z,101781.13
2022-08-05T08:45:38.672Z,101793.63
2022-08-05T08:51:03.355Z,101799.00
2022-08-05T08:56:09.200Z,101804.34
2022-08-05T09:01:15.746Z,101811.38
2022-08-05T09:06:21.382Z,101817.50
2022-08-05T09:11:50.685Z,101824.63
2022-08-05T09:16:52.927Z,101824.53
2022-08-05T09:22:22.001Z,101839.72
2022-08-05T09:28:03.847Z,101834.38
2022-08-05T09:33:02.733Z,101837.03
2022-08-05T09:38:17.690Z,101852.16
2022-08-05T09:43:40.804Z,101853.94
2022-08-05T09:49:03.696Z,101860.28
2022-08-05T09:54:11.505Z,101872.84
2022-08-05T09:59:17.316Z,101872.03
2022-08-05T10:04:29.184Z,101884.66
2022-08-05T10:09:44.871Z,101887.38
2022-08-05T10:14:48.556Z,101890.06
2022-08-05T10:20:03.754Z,101897.22
2022-08-05T10:25:14.257Z,101912.44
2022-08-05T10:31:20.587Z,101916.88
2022-08-05T10:35:44.340Z,101920.44
2022-08-05T10:40:58.141Z,101920.44
2022-08-05T10:46:06.435Z,101932.97
2022-08-05T10:51:22.295Z,101938.34
2022-08-05T10:56:27.304Z,101950.84
2022-08-05T11:01:55.095Z,101949.06
2022-08-05T11:07:11.966Z,101949.06
2022-08-05T11:12:50.226Z,101960.69
2022-08-05T11:17:59.858Z,101963.38
2022-08-05T11:24:04.527Z,101957.97
2022-08-05T11:29:12.757Z,101966.00
2022-08-05T11:34:22.521Z,101976.78
2022-08-05T11:39:55.645Z,101983.91
2022-08-05T11:45:14.358Z,101988.31
2022-08-05T11:50:26.371Z,101982.75
2022-08-05T11:55:31.938Z,102000.59
2022-08-05T12:00:41.269Z,102008.47
2022-08-05T12:05:44.854Z,101994.78
2022-08-05T12:10:50.619Z,101996.66
2022-08-05T12:15:55.866Z,102011.19
2022-08-05T12:21:11.014Z,102009.22
2022-08-05T12:26:16.799Z,102021.84
2022-08-05T12:31:23.675Z,102024.78
2022-08-05T12:36:38.228Z,102019.34
2022-08-05T12:41:43.918Z,102048.81
2022-08-05T12:46:53.949Z,102040.84
2022-08-05T12:52:12.660Z,102044.53
2022-08-05T12:57:23.223Z,102038.19
2022-08-05T13:02:30.747Z,102054.16
2022-08-05T13:07:59.751Z,102056.84
2022-08-05T13:12:58.790Z,102061.38
2022-08-05T13:18:01.872Z,102060.09
2022-08-05T13:23:07.379Z,102062.59
2022-08-05T13:28:12.950Z,102087.69
2022-08-05T13:34:24.440Z,102088.66
2022-08-05T13:38:42.653Z,102092.50
2022-08-05T13:43:54.804Z,102097.88
2022-08-05T13:49:01.021Z,102091.53
2022-08-05T13:54:12.594Z,102095.88
2022-08-05T13:59:19.427Z,102101.28
2022-08-05T14:04:41.148Z,102102.06
2022-08-05T14:09:46.361Z,102114.81
2022-08-05T14:14:51.559Z,102122.19
2022-08-05T14:20:00.847Z,102126.69
2022-08-05T14:25:19.011Z,102130.47
2022-08-05T14:30:27.907Z,102126.84
2022-08-05T14:35:36.257Z,102132.25
2022-08-05T14:40:54.191Z,102143.84
2022-08-05T14:45:58.744Z,102144.78
2022-08-05T14:51:03.149Z,102158.31
2022-08-05T14:56:06.705Z,102149.31
2022-08-05T15:01:16.199Z,102160.06
2022-08-05T15:06:20.850Z,102161.88
2022-08-05T15:11:53.037Z,102164.56
2022-08-05T15:16:57.933Z,102166.34
2022-08-05T15:22:01.669Z,102164.56
2022-08-05T15:27:05.135Z,102162.78
2022-08-05T15:32:13.501Z,102177.94
2022-08-05T15:37:22.208Z,102173.34
2022-08-05T15:42:55.072Z,102175.19
2022-08-05T15:48:05.597Z,102178.75
2022-08-05T15:53:10.852Z,102190.47
2022-08-05T15:58:16.581Z,102183.31
2022-08-05T16:03:21.600Z,102194.06
2022-08-05T16:08:24.611Z,102201.19
2022-08-05T16:13:34.754Z,102205.66
2022-08-05T16:18:52.285Z,102210.13
2022-08-05T16:23:58.061Z,102206.56
2022-08-05T16:29:04.621Z,102209.09
2022-08-05T16:34:12.718Z,102220.78
2022-08-05T16:39:18.147Z,102224.53
2022-08-05T16:44:25.686Z,102228.84
2022-08-05T16:49:30.129Z,102245.69
2022-08-05T16:54:33.324Z,102246.84
2022-08-05T17:00:03.043Z,102253.19
2022-08-05T17:05:00.582Z,102256.63
2022-08-05T17:10:03.953Z,102258.28
2022-08-05T17:15:09.254Z,102261.63
2022-08-05T17:20:14.755Z,102279.19
2022-08-05T17:25:33.691Z,102281.84
2022-08-05T17:30:50.346Z,102290.66
2022-08-05T17:36:08.422Z,102294.84
2022-08-05T17:42:16.368Z,102292.00
2022-08-05T17:46:36.569Z,102320.16
2022-08-05T17:51:41.127Z,102307.47
2022-08-05T17:56:44.618Z,102307.19
2022-08-05T18:01:50.174Z,102320.56
2022-08-05T18:06:54.552Z,102323.84
2022-08-05T18:12:03.862Z,102337.16
2022-08-05T18:17:07.086Z,102337.06
2022-08-05T18:22:36.220Z,102341.63
2022-08-05T18:27:39.453Z,102349.13
2022-08-05T18:33:00.193Z,102348.09
2022-08-05T18:38:05.639Z,102358.59
2022-08-05T18:43:09.189Z,102359.66
2022-08-05T18:48:31.550Z,102363.53
2022-08-05T18:53:43.121Z,102359.38
2022-08-05T18:58:50.845Z,102379.38
2022-08-05T19:03:56.820Z,102378.31
2022-08-05T19:09:01.557Z,102385.22
2022-08-05T19:14:15.217Z,102398.09
2022-08-05T19:19:27.536Z,102392.41
2022-08-05T19:24:35.182Z,102396.47
2022-08-05T19:29:38.816Z,102407.81
2022-08-05T19:34:42.082Z,102406.50
2022-08-05T19:40:00.572Z,102403.44
2022-08-05T19:45:06.428Z,102413.63
2022-08-05T19:50:10.567Z,102413.47
2022-08-05T19:56:13.641Z,102424.88
2022-08-05T20:00:39.599Z,102435.31
2022-08-05T20:05:50.377Z,102443.09
2022-08-05T20:10:56.722Z,102451.06
2022-08-05T20:16:00.195Z,102447.19
2022-08-05T20:21:04.693Z,102469.88
2022-08-05T20:26:16.474Z,102472.22
2022-08-05T20:31:28.453Z,102469.78
2022-08-05T20:36:44.899Z,102479.28
2022-08-05T20:41:49.281Z,102477.13
2022-08-05T20:46:52.477Z,102483.91
2022-08-05T20:51:57.348Z,102484.66
2022-08-05T20:57:03.473Z,102488.72
2022-08-05T21:02:06.658Z,102490.09
2022-08-05T21:07:09.967Z,102493.28
2022-08-05T21:12:19.386Z,102501.13
2022-08-05T21:17:22.452Z,102499.28
2022-08-05T21:22:25.572Z,102505.53
2022-08-05T21:27:38.641Z,102503.59
2022-08-05T21:32:42.083Z,102517.72
2022-08-05T21:37:52.949Z,102514.88
2022-08-05T21:42:59.093Z,102520.16
2022-08-05T21:48:02.527Z,102507.69
2022-08-05T21:53:17.506Z,102520.66
2022-08-05T21:58:28.832Z,102527.72
2022-08-05T22:03:48.444Z,102531.03
2022-08-05T22:08:54.741Z,102538.22
2022-08-05T22:14:19.654Z,102532.75
2022-08-05T22:20:03.179Z,102519.84
2022-08-05T22:25:03.320Z,102550.09
2022-08-05T22:30:09.242Z,102551.72
2022-08-05T22:35:14.175Z,102549.00
2022-08-05T22:40:20.434Z,102562.88
2022-08-05T22:45:26.534Z,102566.06
2022-08-05T22:50:29.513Z,102566.56
2022-08-05T22:55:56.413Z,102571.63
2022-08-05T23:00:57.123Z,102578.50
2022-08-05T23:06:00.188Z,102578.97
2022-08-05T23:11:04.208Z,102584.13
2022-08-05T23:16:09.190Z,102583.75
2022-08-05T23:21:12.124Z,102587.72
2022-08-05T23:26:19.974Z,102593.66
2022-08-05T23:31:25.981Z,102602.13
2022-08-05T23:36:39.865Z,102609.81
2022-08-05T23:41:48.700Z,102613.03
2022-08-05T23:46:53.341Z,102611.72
2022-08-05T23:52:16.693Z,102605.19
2022-08-05T23:57:19.596Z,102614.78
